sensor_id;sensor_type;location;lat;lon;timestamp;P1;durP1;ratioP1;P2;durP2;ratioP2
11018;SDS011;5563;52.296;6.806;2023-09-19T00:02:13;5.82;;;2.17;;
11018;SDS011;5563;52.296;6.806;2023-09-19T00:04:40;5.45;;;1.70;;
11018;SDS011;5563;52.296;6.806;2023-09-19T00:07:15;4.32;;;1.85;;
11018;SDS011;5563;52.296;6.806;2023-09-19T00:09:43;6.40;;;2.42;;
11018;SDS011;5563;52.296;6.806;2023-09-19T00:12:19;4.45;;;2.05;;
11018;SDS011;5563;52.296;6.806;2023-09-19T00:14:55;4.32;;;2.30;;
11018;SDS011;5563;52.296;6.806;2023-09-19T00:17:36;6.00;;;2.13;;
11018;SDS011;5563;52.296;6.806;2023-09-19T00:20:09;5.90;;;2.10;;
11018;SDS011;5563;52.296;6.806;2023-09-19T00:23:00;4.72;;;2.40;;
11018;SDS011;5563;52.296;6.806;2023-09-19T00:25:36;6.60;;;2.28;;
11018;SDS011;5563;52.296;6.806;2023-09-19T00:28:13;7.05;;;2.00;;
11018;SDS011;5563;52.296;6.806;2023-09-19T00:30:44;6.13;;;2.10;;
11018;SDS011;5563;52.296;6.806;2023-09-19T00:33:25;5.38;;;1.83;;
11018;SDS011;5563;52.296;6.806;2023-09-19T00:35:58;3.80;;;2.60;;
11018;SDS011;5563;52.296;6.806;2023-09-19T00:38:37;6.30;;;2.53;;
11018;SDS011;5563;52.296;6.806;2023-09-19T00:41:05;8.65;;;2.20;;
11018;SDS011;5563;52.296;6.806;2023-09-19T00:43:49;7.78;;;1.92;;
11018;SDS011;5563;52.296;6.806;2023-09-19T00:46:27;8.77;;;2.60;;
11018;SDS011;5563;52.296;6.806;2023-09-19T00:48:55;10.55;;;2.78;;
11018;SDS011;5563;52.296;6.806;2023-09-19T00:51:43;8.73;;;2.63;;
11018;SDS011;5563;52.296;6.806;2023-09-19T00:54:14;4.60;;;2.30;;
11018;SDS011;5563;52.296;6.806;2023-09-19T00:56:51;7.63;;;2.50;;
11018;SDS011;5563;52.296;6.806;2023-09-19T00:59:21;7.63;;;2.70;;
11018;SDS011;5563;52.296;6.806;2023-09-19T01:02:02;4.93;;;1.90;;
11018;SDS011;5563;52.296;6.806;2023-09-19T01:04:40;3.28;;;1.75;;
11018;SDS011;5563;52.296;6.806;2023-09-19T01:07:17;4.35;;;1.85;;
11018;SDS011;5563;52.296;6.806;2023-09-19T01:09:47;4.03;;;1.90;;
11018;SDS011;5563;52.296;6.806;2023-09-19T01:13:03;6.53;;;2.28;;
11018;SDS011;5563;52.296;6.806;2023-09-19T01:21:25;5.95;;;1.85;;
11018;SDS011;5563;52.296;6.806;2023-09-19T01:30:32;3.78;;;2.10;;
11018;SDS011;5563;52.296;6.806;2023-09-19T01:33:05;4.72;;;2.17;;
11018;SDS011;5563;52.296;6.806;2023-09-19T01:35:43;4.82;;;1.95;;
11018;SDS011;5563;52.296;6.806;2023-09-19T01:38:21;5.15;;;1.73;;
11018;SDS011;5563;52.296;6.806;2023-09-19T01:41:03;4.55;;;1.92;;
11018;SDS011;5563;52.296;6.806;2023-09-19T01:43:47;5.63;;;1.90;;
11018;SDS011;5563;52.296;6.806;2023-09-19T01:46:21;5.72;;;2.13;;
11018;SDS011;5563;52.296;6.806;2023-09-19T01:52:13;6.00;;;2.47;;
11018;SDS011;5563;52.296;6.806;2023-09-19T01:54:55;6.55;;;2.13;;
11018;SDS011;5563;52.296;6.806;2023-09-19T01:57:49;6.65;;;2.40;;
11018;SDS011;5563;52.296;6.806;2023-09-19T02:00:34;8.40;;;2.38;;
11018;SDS011;5563;52.296;6.806;2023-09-19T02:03:13;7.40;;;2.63;;
11018;SDS011;5563;52.296;6.806;2023-09-19T02:05:48;4.13;;;2.53;;
11018;SDS011;5563;52.296;6.806;2023-09-19T02:08:26;7.32;;;2.55;;
11018;SDS011;5563;52.296;6.806;2023-09-19T02:10:54;7.32;;;2.65;;
11018;SDS011;5563;52.296;6.806;2023-09-19T02:13:28;7.70;;;2.88;;
11018;SDS011;5563;52.296;6.806;2023-09-19T02:16:03;7.20;;;2.78;;
11018;SDS011;5563;52.296;6.806;2023-09-19T02:18:38;8.98;;;2.72;;
11018;SDS011;5563;52.296;6.806;2023-09-19T02:21:10;7.57;;;2.70;;
11018;SDS011;5563;52.296;6.806;2023-09-19T02:23:45;7.53;;;2.60;;
11018;SDS011;5563;52.296;6.806;2023-09-19T02:26:16;5.85;;;2.50;;
11018;SDS011;5563;52.296;6.806;2023-09-19T02:28:51;8.55;;;2.70;;
11018;SDS011;5563;52.296;6.806;2023-09-19T02:31:19;8.38;;;3.28;;
11018;SDS011;5563;52.296;6.806;2023-09-19T02:33:53;6.97;;;3.35;;
11018;SDS011;5563;52.296;6.806;2023-09-19T02:36:22;8.00;;;2.85;;
11018;SDS011;5563;52.296;6.806;2023-09-19T02:38:56;9.73;;;3.13;;
11018;SDS011;5563;52.296;6.806;2023-09-19T02:41:27;6.05;;;2.88;;
11018;SDS011;5563;52.296;6.806;2023-09-19T02:43:56;9.20;;;3.10;;
11018;SDS011;5563;52.296;6.806;2023-09-19T02:46:31;9.10;;;3.00;;
11018;SDS011;5563;52.296;6.806;2023-09-19T02:49:04;9.35;;;2.72;;
11018;SDS011;5563;52.296;6.806;2023-09-19T02:51:39;6.18;;;2.58;;
11018;SDS011;5563;52.296;6.806;2023-09-19T02:54:07;9.48;;;3.30;;
11018;SDS011;5563;52.296;6.806;2023-09-19T02:56:41;6.97;;;2.55;;
11018;SDS011;5563;52.296;6.806;2023-09-19T02:59:12;7.00;;;2.90;;
11018;SDS011;5563;52.296;6.806;2023-09-19T03:01:48;9.77;;;4.03;;
11018;SDS011;5563;52.296;6.806;2023-09-19T03:04:16;9.30;;;3.63;;
11018;SDS011;5563;52.296;6.806;2023-09-19T03:06:52;7.22;;;3.42;;
11018;SDS011;5563;52.296;6.806;2023-09-19T03:09:25;7.75;;;3.35;;
11018;SDS011;5563;52.296;6.806;2023-09-19T03:12:05;9.95;;;3.40;;
11018;SDS011;5563;52.296;6.806;2023-09-19T03:14:33;8.90;;;3.22;;
11018;SDS011;5563;52.296;6.806;2023-09-19T03:17:09;9.73;;;3.10;;
11018;SDS011;5563;52.296;6.806;2023-09-19T03:19:36;11.13;;;3.28;;
11018;SDS011;5563;52.296;6.806;2023-09-19T03:22:16;8.63;;;3.03;;
11018;SDS011;5563;52.296;6.806;2023-09-19T03:24:47;7.32;;;3.00;;
11018;SDS011;5563;52.296;6.806;2023-09-19T03:27:21;7.90;;;3.17;;
11018;SDS011;5563;52.296;6.806;2023-09-19T03:29:55;10.05;;;3.28;;
11018;SDS011;5563;52.296;6.806;2023-09-19T03:32:30;8.80;;;3.28;;
11018;SDS011;5563;52.296;6.806;2023-09-19T03:35:07;7.55;;;3.25;;
11018;SDS011;5563;52.296;6.806;2023-09-19T03:37:44;8.52;;;3.03;;
11018;SDS011;5563;52.296;6.806;2023-09-19T03:40:11;8.52;;;3.05;;
11018;SDS011;5563;52.296;6.806;2023-09-19T03:42:51;8.07;;;2.55;;
11018;SDS011;5563;52.296;6.806;2023-09-19T03:45:29;10.68;;;3.05;;
11018;SDS011;5563;52.296;6.806;2023-09-19T03:48:10;10.45;;;2.70;;
11018;SDS011;5563;52.296;6.806;2023-09-19T03:53:37;6.43;;;2.70;;
11018;SDS011;5563;52.296;6.806;2023-09-19T03:56:14;6.50;;;2.10;;
11018;SDS011;5563;52.296;6.806;2023-09-19T03:58:41;6.25;;;2.90;;
11018;SDS011;5563;52.296;6.806;2023-09-19T04:01:16;12.88;;;2.90;;
11018;SDS011;5563;52.296;6.806;2023-09-19T04:03:48;9.80;;;2.88;;
11018;SDS011;5563;52.296;6.806;2023-09-19T04:06:24;10.43;;;3.67;;
11018;SDS011;5563;52.296;6.806;2023-09-19T04:08:57;7.10;;;2.63;;
11018;SDS011;5563;52.296;6.806;2023-09-19T04:11:37;8.10;;;3.25;;
11018;SDS011;5563;52.296;6.806;2023-09-19T04:14:19;9.68;;;2.65;;
11018;SDS011;5563;52.296;6.806;2023-09-19T04:17:00;10.77;;;2.83;;
11018;SDS011;5563;52.296;6.806;2023-09-19T04:19:38;5.00;;;2.50;;
11018;SDS011;5563;52.296;6.806;2023-09-19T04:22:25;10.52;;;3.35;;
11018;SDS011;5563;52.296;6.806;2023-09-19T04:24:53;7.47;;;2.70;;
11018;SDS011;5563;52.296;6.806;2023-09-19T04:27:41;7.18;;;2.63;;
11018;SDS011;5563;52.296;6.806;2023-09-19T04:30:09;10.20;;;3.30;;
11018;SDS011;5563;52.296;6.806;2023-09-19T04:35:56;9.20;;;2.60;;
11018;SDS011;5563;52.296;6.806;2023-09-19T04:38:50;10.20;;;2.40;;
11018;SDS011;5563;52.296;6.806;2023-09-19T04:41:18;9.93;;;3.33;;
11018;SDS011;5563;52.296;6.806;2023-09-19T04:43:55;10.02;;;2.97;;
11018;SDS011;5563;52.296;6.806;2023-09-19T04:46:22;9.57;;;2.88;;
11018;SDS011;5563;52.296;6.806;2023-09-19T04:48:59;7.15;;;2.60;;
11018;SDS011;5563;52.296;6.806;2023-09-19T04:51:41;8.55;;;2.78;;
11018;SDS011;5563;52.296;6.806;2023-09-19T04:54:19;10.82;;;3.20;;
11018;SDS011;5563;52.296;6.806;2023-09-19T04:56:50;11.13;;;3.30;;
11018;SDS011;5563;52.296;6.806;2023-09-19T04:59:23;9.55;;;3.28;;
11018;SDS011;5563;52.296;6.806;2023-09-19T05:01:58;9.68;;;2.47;;
11018;SDS011;5563;52.296;6.806;2023-09-19T05:04:39;12.70;;;2.97;;
11018;SDS011;5563;52.296;6.806;2023-09-19T05:07:15;8.00;;;2.53;;
11018;SDS011;5563;52.296;6.806;2023-09-19T05:09:49;11.43;;;3.10;;
11018;SDS011;5563;52.296;6.806;2023-09-19T05:12:30;8.77;;;2.63;;
11018;SDS011;5563;52.296;6.806;2023-09-19T05:15:04;12.65;;;3.20;;
11018;SDS011;5563;52.296;6.806;2023-09-19T05:17:54;8.32;;;2.60;;
11018;SDS011;5563;52.296;6.806;2023-09-19T05:20:24;10.40;;;2.42;;
11018;SDS011;5563;52.296;6.806;2023-09-19T05:23:20;8.40;;;3.00;;
11018;SDS011;5563;52.296;6.806;2023-09-19T05:25:55;6.32;;;2.25;;
11018;SDS011;5563;52.296;6.806;2023-09-19T05:28:31;8.23;;;2.60;;
11018;SDS011;5563;52.296;6.806;2023-09-19T05:31:01;7.90;;;2.17;;
11018;SDS011;5563;52.296;6.806;2023-09-19T05:33:38;10.07;;;2.60;;
11018;SDS011;5563;52.296;6.806;2023-09-19T05:36:05;7.18;;;2.35;;
11018;SDS011;5563;52.296;6.806;2023-09-19T05:38:39;11.27;;;2.58;;
11018;SDS011;5563;52.296;6.806;2023-09-19T05:41:11;6.47;;;2.38;;
11018;SDS011;5563;52.296;6.806;2023-09-19T05:43:48;7.95;;;2.47;;
11018;SDS011;5563;52.296;6.806;2023-09-19T05:46:17;7.15;;;2.55;;
11018;SDS011;5563;52.296;6.806;2023-09-19T05:48:51;7.20;;;2.40;;
11018;SDS011;5563;52.296;6.806;2023-09-19T05:51:18;8.27;;;2.40;;
11018;SDS011;5563;52.296;6.806;2023-09-19T05:53:55;6.95;;;2.65;;
11018;SDS011;5563;52.296;6.806;2023-09-19T05:56:24;7.00;;;2.65;;
11018;SDS011;5563;52.296;6.806;2023-09-19T05:58:57;6.30;;;2.53;;
11018;SDS011;5563;52.296;6.806;2023-09-19T06:01:28;6.95;;;2.50;;
11018;SDS011;5563;52.296;6.806;2023-09-19T06:04:02;6.63;;;2.15;;
11018;SDS011;5563;52.296;6.806;2023-09-19T06:06:40;5.60;;;2.22;;
11018;SDS011;5563;52.296;6.806;2023-09-19T06:09:16;10.82;;;2.70;;
11018;SDS011;5563;52.296;6.806;2023-09-19T06:11:51;8.32;;;2.63;;
11018;SDS011;5563;52.296;6.806;2023-09-19T06:14:36;8.07;;;2.92;;
11018;SDS011;5563;52.296;6.806;2023-09-19T06:17:10;8.98;;;2.80;;
11018;SDS011;5563;52.296;6.806;2023-09-19T06:19:41;6.47;;;2.70;;
11018;SDS011;5563;52.296;6.806;2023-09-19T06:22:20;6.22;;;3.20;;
11018;SDS011;5563;52.296;6.806;2023-09-19T06:24:48;7.03;;;2.35;;
11018;SDS011;5563;52.296;6.806;2023-09-19T06:27:25;8.07;;;2.22;;
11018;SDS011;5563;52.296;6.806;2023-09-19T06:29:52;5.82;;;2.10;;
11018;SDS011;5563;52.296;6.806;2023-09-19T06:32:27;9.23;;;2.40;;
11018;SDS011;5563;52.296;6.806;2023-09-19T06:34:55;7.13;;;2.28;;
11018;SDS011;5563;52.296;6.806;2023-09-19T06:37:27;7.72;;;2.72;;
11018;SDS011;5563;52.296;6.806;2023-09-19T06:40:13;5.35;;;1.88;;
11018;SDS011;5563;52.296;6.806;2023-09-19T06:42:51;8.13;;;2.70;;
11018;SDS011;5563;52.296;6.806;2023-09-19T06:45:29;5.82;;;2.40;;
11018;SDS011;5563;52.296;6.806;2023-09-19T06:48:06;12.82;;;3.00;;
11018;SDS011;5563;52.296;6.806;2023-09-19T06:50:39;8.07;;;2.15;;
11018;SDS011;5563;52.296;6.806;2023-09-19T06:53:21;8.50;;;2.33;;
11018;SDS011;5563;52.296;6.806;2023-09-19T06:55:50;6.90;;;2.40;;
11018;SDS011;5563;52.296;6.806;2023-09-19T06:58:25;7.90;;;2.45;;
11018;SDS011;5563;52.296;6.806;2023-09-19T07:00:52;9.15;;;2.40;;
11018;SDS011;5563;52.296;6.806;2023-09-19T07:03:30;7.88;;;2.65;;
11018;SDS011;5563;52.296;6.806;2023-09-19T07:06:00;10.85;;;2.97;;
11018;SDS011;5563;52.296;6.806;2023-09-19T07:08:30;9.43;;;2.70;;
11018;SDS011;5563;52.296;6.806;2023-09-19T07:11:07;9.30;;;2.88;;
11018;SDS011;5563;52.296;6.806;2023-09-19T07:13:48;7.90;;;2.60;;
11018;SDS011;5563;52.296;6.806;2023-09-19T07:16:25;8.55;;;3.25;;
11018;SDS011;5563;52.296;6.806;2023-09-19T07:18:57;6.75;;;2.63;;
11018;SDS011;5563;52.296;6.806;2023-09-19T07:21:34;10.90;;;3.05;;
11018;SDS011;5563;52.296;6.806;2023-09-19T07:24:08;7.50;;;2.78;;
11018;SDS011;5563;52.296;6.806;2023-09-19T07:26:51;7.18;;;2.58;;
11018;SDS011;5563;52.296;6.806;2023-09-19T07:29:19;9.13;;;3.00;;
11018;SDS011;5563;52.296;6.806;2023-09-19T07:31:53;7.43;;;2.00;;
11018;SDS011;5563;52.296;6.806;2023-09-19T07:34:21;10.82;;;2.53;;
11018;SDS011;5563;52.296;6.806;2023-09-19T07:36:58;8.93;;;2.45;;
11018;SDS011;5563;52.296;6.806;2023-09-19T07:39:29;6.82;;;2.65;;
11018;SDS011;5563;52.296;6.806;2023-09-19T07:41:58;11.13;;;2.92;;
11018;SDS011;5563;52.296;6.806;2023-09-19T07:44:32;12.13;;;2.67;;
11018;SDS011;5563;52.296;6.806;2023-09-19T07:47:00;5.22;;;2.20;;
11018;SDS011;5563;52.296;6.806;2023-09-19T07:49:39;8.00;;;2.38;;
11018;SDS011;5563;52.296;6.806;2023-09-19T07:52:16;9.27;;;2.92;;
11018;SDS011;5563;52.296;6.806;2023-09-19T07:54:51;11.88;;;2.70;;
11018;SDS011;5563;52.296;6.806;2023-09-19T07:57:28;7.13;;;2.33;;
11018;SDS011;5563;52.296;6.806;2023-09-19T07:59:55;6.70;;;2.50;;
11018;SDS011;5563;52.296;6.806;2023-09-19T08:02:23;10.02;;;2.42;;
11018;SDS011;5563;52.296;6.806;2023-09-19T08:04:58;11.93;;;2.70;;
11018;SDS011;5563;52.296;6.806;2023-09-19T08:07:29;6.95;;;2.55;;
11018;SDS011;5563;52.296;6.806;2023-09-19T08:10:06;10.75;;;2.85;;
11018;SDS011;5563;52.296;6.806;2023-09-19T08:12:46;13.40;;;2.70;;
11018;SDS011;5563;52.296;6.806;2023-09-19T08:15:42;8.77;;;2.70;;
11018;SDS011;5563;52.296;6.806;2023-09-19T08:18:13;10.35;;;2.88;;
11018;SDS011;5563;52.296;6.806;2023-09-19T08:20:50;5.18;;;2.10;;
11018;SDS011;5563;52.296;6.806;2023-09-19T08:23:18;7.25;;;2.63;;
11018;SDS011;5563;52.296;6.806;2023-09-19T08:25:56;9.48;;;2.83;;
11018;SDS011;5563;52.296;6.806;2023-09-19T08:28:25;9.25;;;3.15;;
11018;SDS011;5563;52.296;6.806;2023-09-19T08:31:05;10.60;;;3.05;;
11018;SDS011;5563;52.296;6.806;2023-09-19T08:33:44;8.65;;;2.40;;
11018;SDS011;5563;52.296;6.806;2023-09-19T08:36:23;10.65;;;2.42;;
11018;SDS011;5563;52.296;6.806;2023-09-19T08:38:56;8.40;;;2.30;;
11018;SDS011;5563;52.296;6.806;2023-09-19T08:41:33;8.70;;;2.58;;
11018;SDS011;5563;52.296;6.806;2023-09-19T08:44:08;7.90;;;2.35;;
11018;SDS011;5563;52.296;6.806;2023-09-19T08:46:46;6.47;;;2.63;;
11018;SDS011;5563;52.296;6.806;2023-09-19T08:49:44;13.15;;;3.05;;
11018;SDS011;5563;52.296;6.806;2023-09-19T08:52:16;10.68;;;2.50;;
11018;SDS011;5563;52.296;6.806;2023-09-19T08:54:58;8.27;;;2.28;;
11018;SDS011;5563;52.296;6.806;2023-09-19T08:57:41;7.43;;;2.25;;
11018;SDS011;5563;52.296;6.806;2023-09-19T09:00:16;7.88;;;2.72;;
11018;SDS011;5563;52.296;6.806;2023-09-19T09:02:55;11.27;;;2.80;;
11018;SDS011;5563;52.296;6.806;2023-09-19T09:05:35;6.57;;;2.53;;
11018;SDS011;5563;52.296;6.806;2023-09-19T09:08:05;9.98;;;2.53;;
11018;SDS011;5563;52.296;6.806;2023-09-19T09:10:47;9.13;;;3.08;;
11018;SDS011;5563;52.296;6.806;2023-09-19T09:13:18;7.13;;;2.63;;
11018;SDS011;5563;52.296;6.806;2023-09-19T09:15:54;5.90;;;2.63;;
11018;SDS011;5563;52.296;6.806;2023-09-19T09:18:38;9.15;;;2.60;;
11018;SDS011;5563;52.296;6.806;2023-09-19T09:21:15;7.78;;;3.30;;
11018;SDS011;5563;52.296;6.806;2023-09-19T09:23:46;10.48;;;2.97;;
11018;SDS011;5563;52.296;6.806;2023-09-19T09:29:08;5.63;;;2.15;;
11018;SDS011;5563;52.296;6.806;2023-09-19T09:31:46;8.63;;;3.15;;
11018;SDS011;5563;52.296;6.806;2023-09-19T09:34:17;8.77;;;2.67;;
11018;SDS011;5563;52.296;6.806;2023-09-19T09:36:55;7.75;;;2.58;;
11018;SDS011;5563;52.296;6.806;2023-09-19T09:39:29;8.98;;;3.00;;
11018;SDS011;5563;52.296;6.806;2023-09-19T09:42:06;7.93;;;2.97;;
11018;SDS011;5563;52.296;6.806;2023-09-19T09:44:37;9.85;;;3.15;;
11018;SDS011;5563;52.296;6.806;2023-09-19T09:47:17;9.70;;;2.78;;
11018;SDS011;5563;52.296;6.806;2023-09-19T09:50:23;9.00;;;2.90;;
11018;SDS011;5563;52.296;6.806;2023-09-19T09:53:02;11.77;;;2.63;;
11018;SDS011;5563;52.296;6.806;2023-09-19T09:55:56;11.85;;;3.20;;
11018;SDS011;5563;52.296;6.806;2023-09-19T09:58:33;11.25;;;3.38;;
11018;SDS011;5563;52.296;6.806;2023-09-19T10:01:07;9.93;;;3.15;;
11018;SDS011;5563;52.296;6.806;2023-09-19T10:03:50;11.88;;;3.33;;
11018;SDS011;5563;52.296;6.806;2023-09-19T10:06:25;9.35;;;3.22;;
11018;SDS011;5563;52.296;6.806;2023-09-19T10:09:04;9.90;;;2.53;;
11018;SDS011;5563;52.296;6.806;2023-09-19T10:11:47;10.75;;;2.80;;
11018;SDS011;5563;52.296;6.806;2023-09-19T10:14:41;10.13;;;2.83;;
11018;SDS011;5563;52.296;6.806;2023-09-19T10:17:14;5.57;;;2.05;;
11018;SDS011;5563;52.296;6.806;2023-09-19T10:19:55;8.85;;;2.70;;
11018;SDS011;5563;52.296;6.806;2023-09-19T10:22:28;7.43;;;3.17;;
11018;SDS011;5563;52.296;6.806;2023-09-19T10:25:05;6.53;;;2.53;;
11018;SDS011;5563;52.296;6.806;2023-09-19T10:27:35;7.57;;;2.55;;
11018;SDS011;5563;52.296;6.806;2023-09-19T10:30:13;7.53;;;2.45;;
11018;SDS011;5563;52.296;6.806;2023-09-19T10:32:45;8.07;;;2.95;;
11018;SDS011;5563;52.296;6.806;2023-09-19T10:35:36;9.35;;;3.40;;
11018;SDS011;5563;52.296;6.806;2023-09-19T10:38:17;11.20;;;3.45;;
11018;SDS011;5563;52.296;6.806;2023-09-19T10:40:56;5.38;;;2.03;;
11018;SDS011;5563;52.296;6.806;2023-09-19T10:43:31;5.93;;;2.75;;
11018;SDS011;5563;52.296;6.806;2023-09-19T10:46:11;6.88;;;2.00;;
11018;SDS011;5563;52.296;6.806;2023-09-19T10:48:39;9.90;;;2.92;;
11018;SDS011;5563;52.296;6.806;2023-09-19T10:51:22;6.00;;;3.03;;
11018;SDS011;5563;52.296;6.806;2023-09-19T10:54:12;7.15;;;2.45;;
11018;SDS011;5563;52.296;6.806;2023-09-19T10:56:51;7.72;;;2.33;;
11018;SDS011;5563;52.296;6.806;2023-09-19T10:59:20;7.65;;;2.58;;
11018;SDS011;5563;52.296;6.806;2023-09-19T11:01:55;9.82;;;3.30;;
11018;SDS011;5563;52.296;6.806;2023-09-19T11:04:35;7.07;;;2.15;;
11018;SDS011;5563;52.296;6.806;2023-09-19T11:07:12;6.63;;;2.03;;
11018;SDS011;5563;52.296;6.806;2023-09-19T11:09:43;8.73;;;2.67;;
11018;SDS011;5563;52.296;6.806;2023-09-19T11:21:38;7.50;;;2.47;;
11018;SDS011;5563;52.296;6.806;2023-09-19T11:27:16;7.53;;;2.40;;
11018;SDS011;5563;52.296;6.806;2023-09-19T11:29:51;7.82;;;2.50;;
11018;SDS011;5563;52.296;6.806;2023-09-19T11:36:16;8.07;;;2.40;;
11018;SDS011;5563;52.296;6.806;2023-09-19T11:46:32;5.07;;;2.58;;
11018;SDS011;5563;52.296;6.806;2023-09-19T11:49:28;11.88;;;2.88;;
11018;SDS011;5563;52.296;6.806;2023-09-19T11:52:16;8.48;;;2.40;;
11018;SDS011;5563;52.296;6.806;2023-09-19T11:54:59;6.45;;;2.55;;
11018;SDS011;5563;52.296;6.806;2023-09-19T11:57:31;8.20;;;2.47;;
11018;SDS011;5563;52.296;6.806;2023-09-19T12:00:16;4.88;;;2.53;;
11018;SDS011;5563;52.296;6.806;2023-09-19T12:02:46;9.35;;;2.70;;
11018;SDS011;5563;52.296;6.806;2023-09-19T12:05:29;6.30;;;2.17;;
11018;SDS011;5563;52.296;6.806;2023-09-19T12:08:00;5.57;;;2.15;;
11018;SDS011;5563;52.296;6.806;2023-09-19T12:13:40;7.50;;;2.60;;
11018;SDS011;5563;52.296;6.806;2023-09-19T12:16:23;8.48;;;2.85;;
11018;SDS011;5563;52.296;6.806;2023-09-19T12:18:51;8.30;;;2.47;;
11018;SDS011;5563;52.296;6.806;2023-09-19T12:26:44;6.72;;;2.63;;
11018;SDS011;5563;52.296;6.806;2023-09-19T12:29:19;6.45;;;2.25;;
11018;SDS011;5563;52.296;6.806;2023-09-19T12:31:54;8.75;;;2.20;;
11018;SDS011;5563;52.296;6.806;2023-09-19T12:34:33;6.30;;;2.25;;
11018;SDS011;5563;52.296;6.806;2023-09-19T12:37:14;6.90;;;2.20;;
11018;SDS011;5563;52.296;6.806;2023-09-19T12:40:02;5.95;;;2.17;;
11018;SDS011;5563;52.296;6.806;2023-09-19T12:42:56;7.95;;;2.05;;
11018;SDS011;5563;52.296;6.806;2023-09-19T12:45:34;5.55;;;2.30;;
11018;SDS011;5563;52.296;6.806;2023-09-19T12:48:22;5.60;;;1.80;;
11018;SDS011;5563;52.296;6.806;2023-09-19T12:51:03;7.50;;;2.25;;
11018;SDS011;5563;52.296;6.806;2023-09-19T12:53:43;5.97;;;2.03;;
11018;SDS011;5563;52.296;6.806;2023-09-19T12:56:19;5.40;;;2.00;;
11018;SDS011;5563;52.296;6.806;2023-09-19T12:58:57;5.47;;;2.17;;
11018;SDS011;5563;52.296;6.806;2023-09-19T13:01:38;4.95;;;1.92;;
11018;SDS011;5563;52.296;6.806;2023-09-19T13:04:20;4.47;;;1.80;;
11018;SDS011;5563;52.296;6.806;2023-09-19T13:06:56;5.22;;;2.08;;
11018;SDS011;5563;52.296;6.806;2023-09-19T13:09:34;8.10;;;2.53;;
11018;SDS011;5563;52.296;6.806;2023-09-19T13:12:02;6.60;;;2.20;;
11018;SDS011;5563;52.296;6.806;2023-09-19T13:14:43;5.47;;;2.00;;
11018;SDS011;5563;52.296;6.806;2023-09-19T13:17:20;3.65;;;1.67;;
11018;SDS011;5563;52.296;6.806;2023-09-19T13:19:58;5.30;;;1.67;;
11018;SDS011;5563;52.296;6.806;2023-09-19T13:22:42;3.42;;;1.58;;
11018;SDS011;5563;52.296;6.806;2023-09-19T13:25:27;6.93;;;2.28;;
11018;SDS011;5563;52.296;6.806;2023-09-19T13:27:57;5.85;;;2.30;;
11018;SDS011;5563;52.296;6.806;2023-09-19T13:30:32;6.22;;;1.92;;
11018;SDS011;5563;52.296;6.806;2023-09-19T13:33:19;6.70;;;2.30;;
11018;SDS011;5563;52.296;6.806;2023-09-19T13:36:01;4.00;;;2.00;;
11018;SDS011;5563;52.296;6.806;2023-09-19T13:38:43;3.72;;;2.00;;
11018;SDS011;5563;52.296;6.806;2023-09-19T13:41:13;6.15;;;2.20;;
11018;SDS011;5563;52.296;6.806;2023-09-19T13:43:53;5.95;;;2.03;;
11018;SDS011;5563;52.296;6.806;2023-09-19T13:46:22;4.90;;;1.92;;
11018;SDS011;5563;52.296;6.806;2023-09-19T13:48:59;3.42;;;1.90;;
11018;SDS011;5563;52.296;6.806;2023-09-19T13:51:36;5.55;;;2.10;;
11018;SDS011;5563;52.296;6.806;2023-09-19T13:54:19;6.63;;;2.35;;
11018;SDS011;5563;52.296;6.806;2023-09-19T13:56:47;4.22;;;1.90;;
11018;SDS011;5563;52.296;6.806;2023-09-19T13:59:25;5.85;;;1.70;;
11018;SDS011;5563;52.296;6.806;2023-09-19T14:02:02;7.55;;;1.70;;
11018;SDS011;5563;52.296;6.806;2023-09-19T14:04:31;6.20;;;1.67;;
11018;SDS011;5563;52.296;6.806;2023-09-19T14:07:07;6.57;;;1.95;;
11018;SDS011;5563;52.296;6.806;2023-09-19T14:09:45;4.28;;;1.65;;
11018;SDS011;5563;52.296;6.806;2023-09-19T14:12:22;3.53;;;1.65;;
11018;SDS011;5563;52.296;6.806;2023-09-19T14:15:10;6.60;;;1.65;;
11018;SDS011;5563;52.296;6.806;2023-09-19T14:17:50;3.53;;;1.73;;
11018;SDS011;5563;52.296;6.806;2023-09-19T14:20:29;4.60;;;1.80;;
11018;SDS011;5563;52.296;6.806;2023-09-19T14:23:06;4.43;;;2.00;;
11018;SDS011;5563;52.296;6.806;2023-09-19T14:25:36;4.10;;;1.60;;
11018;SDS011;5563;52.296;6.806;2023-09-19T14:28:14;5.65;;;1.80;;
11018;SDS011;5563;52.296;6.806;2023-09-19T14:30:48;5.35;;;1.77;;
11018;SDS011;5563;52.296;6.806;2023-09-19T14:33:19;3.42;;;1.50;;
11018;SDS011;5563;52.296;6.806;2023-09-19T14:35:53;3.25;;;1.50;;
11018;SDS011;5563;52.296;6.806;2023-09-19T14:38:21;3.42;;;1.35;;
11018;SDS011;5563;52.296;6.806;2023-09-19T14:41:02;4.07;;;2.30;;
11018;SDS011;5563;52.296;6.806;2023-09-19T14:43:34;4.88;;;1.63;;
11018;SDS011;5563;52.296;6.806;2023-09-19T14:46:08;3.15;;;1.25;;
11018;SDS011;5563;52.296;6.806;2023-09-19T14:48:45;3.53;;;1.30;;
11018;SDS011;5563;52.296;6.806;2023-09-19T14:51:22;2.97;;;1.42;;
11018;SDS011;5563;52.296;6.806;2023-09-19T14:53:50;4.68;;;1.58;;
11018;SDS011;5563;52.296;6.806;2023-09-19T14:56:25;4.43;;;1.65;;
11018;SDS011;5563;52.296;6.806;2023-09-19T14:58:59;2.45;;;1.50;;
11018;SDS011;5563;52.296;6.806;2023-09-19T15:01:27;3.80;;;1.50;;
11018;SDS011;5563;52.296;6.806;2023-09-19T15:04:02;2.67;;;1.48;;
11018;SDS011;5563;52.296;6.806;2023-09-19T15:06:40;5.97;;;1.95;;
11018;SDS011;5563;52.296;6.806;2023-09-19T15:09:16;4.18;;;1.70;;
11018;SDS011;5563;52.296;6.806;2023-09-19T15:11:48;5.55;;;1.48;;
11018;SDS011;5563;52.296;6.806;2023-09-19T15:14:28;4.53;;;1.50;;
11018;SDS011;5563;52.296;6.806;2023-09-19T15:17:03;4.90;;;1.67;;
11018;SDS011;5563;52.296;6.806;2023-09-19T15:19:38;2.13;;;1.30;;
11018;SDS011;5563;52.296;6.806;2023-09-19T15:22:09;4.90;;;1.80;;
11018;SDS011;5563;52.296;6.806;2023-09-19T15:24:44;1.73;;;1.05;;
11018;SDS011;5563;52.296;6.806;2023-09-19T15:27:12;3.90;;;1.40;;
11018;SDS011;5563;52.296;6.806;2023-09-19T15:29:46;3.15;;;1.65;;
11018;SDS011;5563;52.296;6.806;2023-09-19T15:32:14;2.78;;;1.58;;
11018;SDS011;5563;52.296;6.806;2023-09-19T15:34:48;1.73;;;1.25;;
11018;SDS011;5563;52.296;6.806;2023-09-19T15:37:19;4.57;;;1.52;;
11018;SDS011;5563;52.296;6.806;2023-09-19T15:39:53;3.25;;;1.10;;
11018;SDS011;5563;52.296;6.806;2023-09-19T15:42:21;3.70;;;1.42;;
11018;SDS011;5563;52.296;6.806;2023-09-19T15:44:55;2.78;;;1.23;;
11018;SDS011;5563;52.296;6.806;2023-09-19T15:47:22;3.88;;;1.48;;
11018;SDS011;5563;52.296;6.806;2023-09-19T15:49:57;2.53;;;1.40;;
11018;SDS011;5563;52.296;6.806;2023-09-19T15:52:27;2.72;;;1.38;;
11018;SDS011;5563;52.296;6.806;2023-09-19T15:55:05;4.10;;;1.70;;
11018;SDS011;5563;52.296;6.806;2023-09-19T15:57:37;5.05;;;1.55;;
11018;SDS011;5563;52.296;6.806;2023-09-19T16:00:11;2.72;;;1.30;;
11018;SDS011;5563;52.296;6.806;2023-09-19T16:02:50;4.43;;;1.65;;
11018;SDS011;5563;52.296;6.806;2023-09-19T16:05:27;4.20;;;1.50;;
11018;SDS011;5563;52.296;6.806;2023-09-19T16:08:11;4.75;;;1.55;;
11018;SDS011;5563;52.296;6.806;2023-09-19T16:10:50;3.17;;;1.50;;
11018;SDS011;5563;52.296;6.806;2023-09-19T16:13:21;3.40;;;1.33;;
11018;SDS011;5563;52.296;6.806;2023-09-19T16:15:59;2.72;;;1.30;;
11018;SDS011;5563;52.296;6.806;2023-09-19T16:18:36;2.50;;;1.48;;
11018;SDS011;5563;52.296;6.806;2023-09-19T16:21:05;3.30;;;1.88;;
11018;SDS011;5563;52.296;6.806;2023-09-19T16:23:45;3.60;;;1.30;;
11018;SDS011;5563;52.296;6.806;2023-09-19T16:26:13;3.20;;;1.40;;
11018;SDS011;5563;52.296;6.806;2023-09-19T16:28:49;3.78;;;1.50;;
11018;SDS011;5563;52.296;6.806;2023-09-19T16:31:37;1.98;;;1.10;;
11018;SDS011;5563;52.296;6.806;2023-09-19T16:34:13;4.60;;;1.48;;
11018;SDS011;5563;52.296;6.806;2023-09-19T16:36:47;3.50;;;1.23;;
11018;SDS011;5563;52.296;6.806;2023-09-19T16:39:15;3.25;;;1.10;;
11018;SDS011;5563;52.296;6.806;2023-09-19T16:41:43;3.25;;;1.30;;
11018;SDS011;5563;52.296;6.806;2023-09-19T16:44:18;3.65;;;1.52;;
11018;SDS011;5563;52.296;6.806;2023-09-19T16:46:54;3.55;;;1.40;;
11018;SDS011;5563;52.296;6.806;2023-09-19T16:49:29;4.53;;;1.30;;
11018;SDS011;5563;52.296;6.806;2023-09-19T16:52:00;1.65;;;1.17;;